Time;durP1;ratioP1;P1;durP2;ratioP2;P2;SDS_P1;SDS_P2;PMS_P1;PMS_P2;Temp;Humidity;BMP_temperature;BMP_pressure;BME280_temperature;BME280_humidity;BME280_pressure;Samples;Min_cycle;Max_cycle;Signal;HPM_P1;HPM_P2
2023/03/15 00:02:07;;;;;;;;;;;;;;;;;;5057958;27;98524;-75
2023/03/15 00:04:35;;;;;;;7.05;2.53;;;;;;;;;;5074882;27;127380;-76
2023/03/15 00:07:02;;;;;;;6.90;2.67;;;;;;;;;;5074697;27;100327;-76
2023/03/15 00:09:28;;;;;;;5.97;2.58;;;;;;;;;;5042752;27;98633;-76
2023/03/15 00:11:55;;;;;;;6.28;2.50;;;;;;;;;;5055927;27;101653;-76
2023/03/15 00:14:21;;;;;;;6.22;2.38;;;;;;;;;;5073826;27;98559;-75
2023/03/15 00:16:48;;;;;;;5.82;2.50;;;;;;;;;;5056016;27;101466;-77
2023/03/15 00:19:14;;;;;;;7.18;2.42;;;;;;;;;;5074559;27;99276;-76
2023/03/15 00:21:42;;;;;;;6.10;2.70;;;;;;;;;;5045784;27;98542;-76
2023/03/15 00:24:10;;;;;;;6.43;2.60;;;;;;;;;;5057184;27;101186;-77
2023/03/15 00:26:36;;;;;;;6.75;2.30;;;;;;;;;;5038868;27;101331;-78
2023/03/15 00:29:03;;;;;;;5.15;2.50;;;;;;;;;;5078527;27;98188;-77
2023/03/15 00:31:30;;;;;;;6.07;2.25;;;;;;;;;;5056325;27;98869;-77
2023/03/15 00:33:56;;;;;;;5.82;2.20;;;;;;;;;;5057720;27;99024;-76
2023/03/15 00:36:23;;;;;;;5.88;2.33;;;;;;;;;;5052876;27;99493;-76
2023/03/15 00:38:52;;;;;;;5.88;2.40;;;;;;;;;;5057315;27;101479;-77
2023/03/15 00:41:19;;;;;;;6.90;2.50;;;;;;;;;;5041708;27;98543;-77
2023/03/15 00:43:45;;;;;;;5.18;2.00;;;;;;;;;;5063373;27;101113;-76
2023/03/15 00:46:12;;;;;;;4.78;1.98;;;;;;;;;;5076916;27;99536;-76
2023/03/15 00:48:39;;;;;;;5.97;2.22;;;;;;;;;;5074557;27;97577;-76
2023/03/15 00:51:07;;;;;;;5.68;2.30;;;;;;;;;;5077132;27;98997;-77
2023/03/15 00:53:34;;;;;;;5.40;2.17;;;;;;;;;;5060205;27;101468;-76
2023/03/15 00:56:09;;;;;;;5.38;2.03;;;;;;;;;;5076167;27;99366;-76
2023/03/15 00:58:36;;;;;;;3.95;1.73;;;;;;;;;;5058571;27;101624;-76
2023/03/15 01:01:09;;;;;;;4.05;1.90;;;;;;;;;;5077471;27;98814;-76
2023/03/15 01:03:36;;;;;;;6.82;2.10;;;;;;;;;;5075036;27;98537;-76
2023/03/15 01:06:07;;;;;;;4.20;1.75;;;;;;;;;;5076884;27;99044;-76
2023/03/15 01:08:34;;;;;;;5.15;2.00;;;;;;;;;;5077465;27;98452;-77
2023/03/15 01:11:02;;;;;;;4.57;1.70;;;;;;;;;;5056977;27;98659;-76
2023/03/15 01:13:28;;;;;;;4.43;1.70;;;;;;;;;;5042817;27;98124;-77
2023/03/15 01:15:55;;;;;;;3.63;1.70;;;;;;;;;;5042552;27;98457;-77
2023/03/15 01:18:21;;;;;;;4.93;1.83;;;;;;;;;;5037926;27;101022;-77
2023/03/15 01:20:48;;;;;;;4.47;1.52;;;;;;;;;;5057093;27;99146;-76
2023/03/15 01:23:14;;;;;;;8.95;1.83;;;;;;;;;;5078453;27;100074;-76
2023/03/15 01:25:41;;;;;;;3.70;1.60;;;;;;;;;;5040492;27;101188;-77
2023/03/15 01:28:07;;;;;;;4.10;1.50;;;;;;;;;;5042769;27;98740;-77
2023/03/15 01:30:34;;;;;;;3.50;1.40;;;;;;;;;;5056010;27;100339;-77
2023/03/15 01:33:00;;;;;;;4.38;1.40;;;;;;;;;;5068978;27;98843;-77
2023/03/15 01:35:27;;;;;;;4.32;1.60;;;;;;;;;;5076918;27;98472;-76
2023/03/15 01:37:53;;;;;;;3.30;1.33;;;;;;;;;;5080437;27;98739;-76
2023/03/15 01:40:20;;;;;;;4.90;1.70;;;;;;;;;;5057552;27;98229;-76
2023/03/15 01:43:10;;;;;;;3.28;1.10;;;;;;;;;;5077343;27;98587;-77
2023/03/15 01:45:55;;;;;;;4.47;1.63;;;;;;;;;;5056506;27;102512;-78
2023/03/15 01:48:24;;;;;;;4.05;1.20;;;;;;;;;;5076001;27;98902;-76
2023/03/15 01:50:54;;;;;;;5.05;1.40;;;;;;;;;;5056315;27;101354;-76
2023/03/15 01:53:22;;;;;;;3.53;1.33;;;;;;;;;;5058339;27;101284;-76
2023/03/15 01:55:51;;;;;;;3.05;1.20;;;;;;;;;;5040836;27;99490;-76
2023/03/15 01:58:24;;;;;;;4.18;1.40;;;;;;;;;;5063135;27;98436;-77
2023/03/15 02:00:51;;;;;;;5.20;1.42;;;;;;;;;;5075757;27;98769;-76
2023/03/15 02:03:22;;;;;;;3.55;1.20;;;;;;;;;;5059152;27;101283;-76
2023/03/15 02:05:53;;;;;;;4.25;1.35;;;;;;;;;;5056584;27;101213;-75
2023/03/15 02:08:49;;;;;;;6.85;1.40;;;;;;;;;;5054447;27;98211;-75
2023/03/15 02:11:20;;;;;;;6.88;1.42;;;;;;;;;;5056672;27;99242;-75
2023/03/15 02:13:48;;;;;;;4.53;1.15;;;;;;;;;;5050715;27;101081;-75
2023/03/15 02:16:15;;;;;;;4.38;1.40;;;;;;;;;;5059293;27;99126;-74
2023/03/15 02:18:48;;;;;;;7.50;1.65;;;;;;;;;;5057809;27;99052;-75
2023/03/15 02:21:33;;;;;;;4.50;1.30;;;;;;;;;;5078364;27;99773;-75
2023/03/15 02:24:09;;;;;;;4.78;1.42;;;;;;;;;;5076888;27;99754;-74
2023/03/15 02:26:41;;;;;;;4.50;1.27;;;;;;;;;;5039790;27;101568;-74
2023/03/15 02:29:08;;;;;;;2.35;1.00;;;;;;;;;;5077648;27;99218;-77
2023/03/15 02:31:36;;;;;;;4.00;1.20;;;;;;;;;;5052806;27;100982;-76
2023/03/15 02:34:05;;;;;;;3.28;1.10;;;;;;;;;;5040930;27;101307;-77
2023/03/15 02:36:32;;;;;;;4.38;1.25;;;;;;;;;;5049287;27;99414;-76
2023/03/15 02:38:59;;;;;;;4.93;1.17;;;;;;;;;;5047256;27;101386;-76
2023/03/15 02:41:36;;;;;;;5.03;1.27;;;;;;;;;;5039969;27;101004;-76
2023/03/15 02:44:05;;;;;;;3.28;1.10;;;;;;;;;;5080232;27;98529;-75
2023/03/15 02:46:32;;;;;;;6.05;1.45;;;;;;;;;;5073755;27;98677;-76
2023/03/15 02:48:58;;;;;;;3.45;1.10;;;;;;;;;;5051704;27;98310;-76
2023/03/15 02:51:27;;;;;;;2.42;0.98;;;;;;;;;;5057301;27;100571;-75
2023/03/15 02:53:55;;;;;;;8.32;1.15;;;;;;;;;;5069718;27;98478;-76
2023/03/15 02:56:21;;;;;;;4.18;1.10;;;;;;;;;;5075255;27;98591;-76
2023/03/15 02:58:48;;;;;;;3.53;1.30;;;;;;;;;;5057132;27;98559;-75
2023/03/15 03:01:15;;;;;;;9.75;1.35;;;;;;;;;;5052952;27;101622;-76
2023/03/15 03:03:42;;;;;;;3.53;1.10;;;;;;;;;;5061584;27;98577;-76
2023/03/15 03:06:09;;;;;;;2.47;0.98;;;;;;;;;;5063444;27;101408;-76
2023/03/15 03:08:37;;;;;;;4.32;1.48;;;;;;;;;;5057277;27;98431;-76
2023/03/15 03:11:04;;;;;;;3.20;0.98;;;;;;;;;;5056317;27;99079;-76
2023/03/15 03:13:31;;;;;;;3.70;0.95;;;;;;;;;;5075425;27;99914;-75
2023/03/15 03:15:59;;;;;;;2.40;1.17;;;;;;;;;;5056842;27;98340;-75
2023/03/15 03:18:34;;;;;;;6.50;1.10;;;;;;;;;;5052918;27;99524;-75
2023/03/15 03:21:03;;;;;;;5.40;1.20;;;;;;;;;;5053788;27;105106;-74
2023/03/15 03:23:30;;;;;;;3.22;1.05;;;;;;;;;;5047888;27;98762;-75
2023/03/15 03:25:57;;;;;;;3.88;1.30;;;;;;;;;;5075089;27;99318;-75
2023/03/15 03:28:25;;;;;;;3.03;0.90;;;;;;;;;;5056078;27;101451;-75
2023/03/15 03:30:52;;;;;;;3.35;1.00;;;;;;;;;;5055153;27;100378;-75
2023/03/15 03:33:18;;;;;;;1.65;0.70;;;;;;;;;;5072316;27;100925;-76
2023/03/15 03:35:46;;;;;;;2.63;1.00;;;;;;;;;;5039249;27;98586;-75
2023/03/15 03:38:13;;;;;;;3.33;1.05;;;;;;;;;;5056901;27;98613;-75
2023/03/15 03:40:44;;;;;;;1.73;0.90;;;;;;;;;;5054251;27;99359;-75
2023/03/15 03:43:10;;;;;;;1.98;0.90;;;;;;;;;;5051438;27;97652;-74
2023/03/15 03:45:37;;;;;;;2.17;0.88;;;;;;;;;;5054889;27;100493;-75
2023/03/15 03:48:04;;;;;;;1.55;0.80;;;;;;;;;;5048818;27;98780;-75
2023/03/15 03:50:32;;;;;;;2.20;0.90;;;;;;;;;;5058833;27;101046;-75
2023/03/15 03:52:59;;;;;;;2.45;1.00;;;;;;;;;;5053930;27;101214;-74
2023/03/15 03:55:32;;;;;;;1.70;0.80;;;;;;;;;;5056491;27;99660;-75
2023/03/15 03:57:59;;;;;;;3.90;0.90;;;;;;;;;;5055411;27;100889;-76
2023/03/15 04:00:47;;;;;;;3.20;1.00;;;;;;;;;;5056403;27;100740;-76
2023/03/15 04:03:13;;;;;;;3.08;0.90;;;;;;;;;;5055577;27;98234;-75
2023/03/15 04:05:44;;;;;;;2.83;1.00;;;;;;;;;;5062419;27;99903;-76
2023/03/15 04:08:15;;;;;;;3.33;1.00;;;;;;;;;;5056994;27;98570;-76
2023/03/15 04:10:42;;;;;;;2.67;0.93;;;;;;;;;;5062643;27;98356;-76
2023/03/15 04:13:09;;;;;;;1.75;0.80;;;;;;;;;;5053098;27;100893;-75
2023/03/15 04:15:35;;;;;;;3.00;0.90;;;;;;;;;;5046074;27;99470;-75
2023/03/15 04:18:04;;;;;;;1.92;0.70;;;;;;;;;;5042987;27;100970;-75
2023/03/15 04:20:35;;;;;;;1.58;0.80;;;;;;;;;;5058473;27;98775;-75
2023/03/15 04:23:02;;;;;;;3.10;0.73;;;;;;;;;;5078442;27;98233;-74
2023/03/15 04:25:54;;;;;;;3.35;0.90;;;;;;;;;;5071498;27;100040;-75
2023/03/15 04:28:39;;;;;;;1.23;0.80;;;;;;;;;;5076945;27;98391;-75
2023/03/15 04:31:16;;;;;;;3.03;0.90;;;;;;;;;;5077720;27;98451;-76
2023/03/15 04:34:12;;;;;;;1.17;0.75;;;;;;;;;;5072743;27;99847;-76
2023/03/15 04:37:08;;;;;;;1.63;0.80;;;;;;;;;;5029746;27;98404;-75
2023/03/15 04:40:00;;;;;;;1.20;0.60;;;;;;;;;;5045477;27;98254;-74
2023/03/15 04:42:55;;;;;;;2.05;0.80;;;;;;;;;;5057935;27;102352;-74
2023/03/15 04:45:31;;;;;;;2.53;1.00;;;;;;;;;;5045690;27;98415;-75
2023/03/15 04:48:16;;;;;;;3.08;0.90;;;;;;;;;;5059809;27;98301;-75
2023/03/15 04:50:54;;;;;;;2.03;1.00;;;;;;;;;;5076697;27;99652;-75
2023/03/15 04:53:32;;;;;;;3.33;1.13;;;;;;;;;;5057242;27;98696;-74
2023/03/15 04:56:17;;;;;;;2.65;0.82;;;;;;;;;;5060920;27;98291;-75
2023/03/15 04:59:02;;;;;;;2.00;0.85;;;;;;;;;;5079256;27;102858;-74
2023/03/15 05:01:49;;;;;;;2.50;0.85;;;;;;;;;;5058957;27;98703;-74
2023/03/15 05:04:28;;;;;;;1.90;0.70;;;;;;;;;;5055376;27;100712;-74
2023/03/15 05:07:34;;;;;;;2.45;0.90;;;;;;;;;;4993025;28;98638;-74
2023/03/15 05:10:29;;;;;;;2.30;0.80;;;;;;;;;;4975606;28;99921;-76
2023/03/15 05:13:07;;;;;;;1.27;0.80;;;;;;;;;;5048083;27;104125;-77
2023/03/15 05:15:47;;;;;;;3.00;0.80;;;;;;;;;;5059076;27;98483;-76
2023/03/15 05:18:44;;;;;;;4.82;0.90;;;;;;;;;;5058250;27;101007;-76
2023/03/15 05:21:29;;;;;;;3.33;0.93;;;;;;;;;;5070394;27;98600;-75
2023/03/15 05:24:14;;;;;;;2.78;0.80;;;;;;;;;;5061552;27;98437;-75
2023/03/15 05:27:06;;;;;;;3.65;1.27;;;;;;;;;;5073305;27;104547;-75
2023/03/15 05:30:09;;;;;;;2.10;0.77;;;;;;;;;;4993388;28;97924;-76
2023/03/15 05:33:03;;;;;;;1.60;0.80;;;;;;;;;;5054923;27;103410;-76
2023/03/15 05:35:55;;;;;;;1.92;0.90;;;;;;;;;;5040802;27;99268;-76
2023/03/15 05:38:41;;;;;;;4.05;0.90;;;;;;;;;;5010872;27;100244;-76
2023/03/15 05:41:43;;;;;;;4.10;0.90;;;;;;;;;;5020094;27;99015;-77
2023/03/15 05:44:29;;;;;;;2.75;0.73;;;;;;;;;;5042703;27;100870;-76
2023/03/15 05:47:05;;;;;;;2.17;0.82;;;;;;;;;;5057088;27;98687;-75
2023/03/15 05:49:46;;;;;;;3.63;0.93;;;;;;;;;;5042591;27;100953;-76
2023/03/15 05:52:31;;;;;;;5.13;1.10;;;;;;;;;;5057479;27;99325;-76
2023/03/15 05:55:09;;;;;;;1.70;0.77;;;;;;;;;;5043615;27;101132;-74
2023/03/15 05:57:54;;;;;;;3.75;0.98;;;;;;;;;;5076767;27;97692;-75
2023/03/15 06:00:42;;;;;;;2.50;0.90;;;;;;;;;;5076949;27;98625;-75
2023/03/15 06:03:21;;;;;;;2.45;0.93;;;;;;;;;;5057954;27;100739;-75
2023/03/15 06:05:54;;;;;;;2.65;0.90;;;;;;;;;;5040242;27;102101;-76
2023/03/15 06:08:30;;;;;;;1.42;0.70;;;;;;;;;;5057550;27;98687;-76
2023/03/15 06:10:56;;;;;;;1.45;0.68;;;;;;;;;;5057938;27;105457;-75
2023/03/15 06:13:23;;;;;;;2.75;0.80;;;;;;;;;;5053101;27;101232;-76
2023/03/15 06:15:50;;;;;;;4.13;1.00;;;;;;;;;;5057810;27;100893;-76
2023/03/15 06:18:17;;;;;;;1.73;0.80;;;;;;;;;;5056132;27;101061;-76
2023/03/15 06:20:46;;;;;;;2.83;0.90;;;;;;;;;;5056475;27;98781;-75
2023/03/15 06:23:13;;;;;;;4.32;1.10;;;;;;;;;;5057750;27;100364;-75
2023/03/15 06:25:44;;;;;;;4.35;1.00;;;;;;;;;;5029898;27;101871;-75
2023/03/15 06:28:10;;;;;;;4.65;1.05;;;;;;;;;;5056891;27;98194;-75
2023/03/15 06:30:42;;;;;;;4.97;1.15;;;;;;;;;;5056395;27;101058;-76
2023/03/15 06:33:08;;;;;;;3.85;0.90;;;;;;;;;;5059802;27;101425;-75
2023/03/15 06:35:35;;;;;;;2.92;0.80;;;;;;;;;;5056234;27;98675;-75
2023/03/15 06:38:01;;;;;;;4.03;1.30;;;;;;;;;;5056448;27;100980;-76
2023/03/15 06:40:28;;;;;;;4.10;1.25;;;;;;;;;;5055907;27;98239;-76
2023/03/15 06:42:54;;;;;;;2.28;0.90;;;;;;;;;;5051810;27;101172;-76
2023/03/15 06:45:21;;;;;;;2.60;1.00;;;;;;;;;;5075419;27;99213;-75
2023/03/15 06:47:48;;;;;;;2.65;0.75;;;;;;;;;;5056250;27;97788;-76
2023/03/15 06:50:16;;;;;;;2.17;0.75;;;;;;;;;;5049228;27;99660;-75
2023/03/15 06:52:42;;;;;;;3.53;0.90;;;;;;;;;;5055795;27;101053;-75
2023/03/15 06:55:11;;;;;;;3.97;0.90;;;;;;;;;;5060266;27;99566;-75
2023/03/15 06:57:38;;;;;;;2.00;0.90;;;;;;;;;;5056636;27;100998;-75
2023/03/15 07:00:10;;;;;;;2.72;0.95;;;;;;;;;;5074974;27;98421;-75
2023/03/15 07:02:36;;;;;;;3.55;0.90;;;;;;;;;;5074430;27;98454;-75
2023/03/15 07:05:03;;;;;;;3.13;0.80;;;;;;;;;;5080695;27;99201;-76
2023/03/15 07:07:30;;;;;;;2.42;0.80;;;;;;;;;;5041142;27;98662;-74
2023/03/15 07:09:56;;;;;;;3.13;0.93;;;;;;;;;;5074544;27;99973;-75
2023/03/15 07:12:22;;;;;;;3.33;0.90;;;;;;;;;;5048762;27;98056;-75
2023/03/15 07:14:49;;;;;;;2.55;0.90;;;;;;;;;;5075679;27;99375;-74
2023/03/15 07:17:15;;;;;;;3.53;0.80;;;;;;;;;;5075516;27;101380;-75
2023/03/15 07:19:42;;;;;;;3.78;0.82;;;;;;;;;;5054014;27;99189;-76
2023/03/15 07:22:21;;;;;;;4.30;0.77;;;;;;;;;;5075588;27;100267;-77
2023/03/15 07:24:48;;;;;;;2.75;0.80;;;;;;;;;;5073800;27;99076;-77
2023/03/15 07:27:14;;;;;;;3.60;0.85;;;;;;;;;;5073669;27;98232;-75
2023/03/15 07:29:44;;;;;;;6.22;1.08;;;;;;;;;;5071506;27;98855;-76
2023/03/15 07:32:10;;;;;;;2.97;0.90;;;;;;;;;;5087863;27;98854;-76
2023/03/15 07:34:37;;;;;;;2.45;0.70;;;;;;;;;;5074012;27;98437;-77
2023/03/15 07:37:03;;;;;;;3.00;0.80;;;;;;;;;;5074436;27;98371;-76
2023/03/15 07:39:31;;;;;;;3.10;0.80;;;;;;;;;;5080712;27;98818;-77
2023/03/15 07:41:58;;;;;;;;;;;;;;;;;;5078813;27;98533;-76
2023/03/15 07:44:30;;;;;;;4.78;0.80;;;;;;;;;;5042596;27;102175;-77
2023/03/15 07:46:57;;;;;;;4.20;1.02;;;;;;;;;;5078987;27;98759;-76
2023/03/15 07:49:24;;;;;;;4.18;0.77;;;;;;;;;;5077408;27;98833;-76
2023/03/15 07:51:50;;;;;;;5.35;1.00;;;;;;;;;;5059245;27;98895;-77
2023/03/15 07:54:18;;;;;;;2.50;0.90;;;;;;;;;;5058876;27;98561;-77
2023/03/15 07:56:44;;;;;;;;;;;;;;;;;;5060467;27;99299;-78
2023/03/15 07:59:11;;;;;;;3.03;0.82;;;;;;;;;;5058585;27;119303;-78
2023/03/15 08:01:37;;;;;;;9.15;1.20;;;;;;;;;;5060916;27;97573;-77
2023/03/15 08:04:04;;;;;;;6.50;1.00;;;;;;;;;;5076945;27;99224;-76
2023/03/15 08:06:30;;;;;;;8.10;1.17;;;;;;;;;;5084675;27;98611;-76
2023/03/15 08:08:57;;;;;;;5.55;1.10;;;;;;;;;;5076075;27;102907;-76
2023/03/15 08:11:23;;;;;;;15.88;1.13;;;;;;;;;;5077217;27;98885;-75
2023/03/15 08:13:50;;;;;;;5.18;1.13;;;;;;;;;;5060000;27;98789;-75
2023/03/15 08:16:16;;;;;;;3.88;0.90;;;;;;;;;;5066704;27;99817;-76
2023/03/15 08:18:43;;;;;;;3.55;1.00;;;;;;;;;;5050538;27;99524;-76
2023/03/15 08:21:09;;;;;;;4.72;0.90;;;;;;;;;;5058806;27;98625;-76
2023/03/15 08:23:36;;;;;;;2.25;0.77;;;;;;;;;;5080241;27;98821;-75
2023/03/15 08:26:02;;;;;;;3.08;0.95;;;;;;;;;;5075020;27;98664;-76
2023/03/15 08:28:29;;;;;;;2.28;0.90;;;;;;;;;;5076696;27;98788;-77
2023/03/15 08:30:55;;;;;;;1.85;0.80;;;;;;;;;;5075866;27;99848;-78
2023/03/15 08:33:21;;;;;;;3.88;0.90;;;;;;;;;;5057784;27;99210;-76
2023/03/15 08:35:52;;;;;;;2.45;0.70;;;;;;;;;;5054458;27;99209;-76
2023/03/15 08:38:19;;;;;;;2.25;0.93;;;;;;;;;;5042683;27;101262;-76
2023/03/15 08:40:45;;;;;;;3.15;0.90;;;;;;;;;;5076072;27;99162;-76
2023/03/15 08:43:12;;;;;;;2.97;0.90;;;;;;;;;;5081694;27;98593;-76
2023/03/15 08:45:38;;;;;;;2.58;0.90;;;;;;;;;;5076388;27;98691;-76
2023/03/15 08:48:24;;;;;;;3.20;0.70;;;;;;;;;;5047041;27;100548;-76
2023/03/15 08:50:51;;;;;;;2.50;0.90;;;;;;;;;;5076382;27;98424;-76
2023/03/15 08:53:17;;;;;;;2.13;0.80;;;;;;;;;;5078464;27;98380;-76
2023/03/15 08:55:44;;;;;;;2.35;0.80;;;;;;;;;;5076558;27;99130;-77
2023/03/15 08:58:13;;;;;;;3.15;1.02;;;;;;;;;;5058243;27;100097;-77
2023/03/15 09:00:39;;;;;;;2.17;0.80;;;;;;;;;;5057903;27;98322;-75
2023/03/15 09:03:06;;;;;;;2.08;0.80;;;;;;;;;;5035139;27;101564;-76
2023/03/15 09:05:33;;;;;;;2.75;0.80;;;;;;;;;;5086891;27;98890;-76
2023/03/15 09:08:00;;;;;;;2.13;0.82;;;;;;;;;;5067131;27;98953;-76
2023/03/15 09:10:27;;;;;;;2.53;0.77;;;;;;;;;;5058246;27;98962;-76
2023/03/15 09:12:54;;;;;;;2.33;0.90;;;;;;;;;;5075724;27;98359;-76
2023/03/15 09:15:20;;;;;;;;;;;;;;;;;;5079537;27;98875;-76
2023/03/15 09:17:47;;;;;;;2.90;0.90;;;;;;;;;;5076578;27;128905;-77
2023/03/15 09:20:15;;;;;;;;;;;;;;;;;;5078034;27;98649;-76
2023/03/15 09:22:41;;;;;;;3.08;0.88;;;;;;;;;;5077163;27;128893;-77
2023/03/15 09:25:08;;;;;;;2.42;1.00;;;;;;;;;;5069866;27;99667;-76
2023/03/15 09:27:35;;;;;;;1.90;0.60;;;;;;;;;;5081111;27;98665;-77
2023/03/15 09:30:02;;;;;;;2.35;0.98;;;;;;;;;;5051183;27;100473;-77
2023/03/15 09:32:28;;;;;;;2.70;0.80;;;;;;;;;;5059814;27;98204;-77
2023/03/15 09:34:55;;;;;;;2.78;0.80;;;;;;;;;;5070448;27;98671;-77
2023/03/15 09:37:21;;;;;;;2.15;0.63;;;;;;;;;;5056534;27;99062;-76
2023/03/15 09:39:48;;;;;;;3.13;0.80;;;;;;;;;;5077814;27;97715;-80
2023/03/15 09:42:21;;;;;;;2.88;0.80;;;;;;;;;;5078031;27;98638;-77
2023/03/15 09:44:52;;;;;;;3.55;0.98;;;;;;;;;;5040759;27;100617;-77
2023/03/15 09:47:21;;;;;;;3.95;0.70;;;;;;;;;;5058390;27;99598;-77
2023/03/15 09:49:54;;;;;;;2.05;0.77;;;;;;;;;;5060353;27;101556;-76
2023/03/15 09:52:30;;;;;;;3.35;0.80;;;;;;;;;;5066834;27;98260;-77
2023/03/15 09:55:01;;;;;;;2.33;0.73;;;;;;;;;;5041700;27;106025;-77
2023/03/15 09:57:35;;;;;;;2.20;0.80;;;;;;;;;;5077555;27;98943;-76
2023/03/15 10:00:05;;;;;;;3.05;0.90;;;;;;;;;;5077061;27;98445;-76
2023/03/15 10:02:34;;;;;;;1.05;0.70;;;;;;;;;;5057473;27;98774;-78
2023/03/15 10:05:10;;;;;;;2.08;0.75;;;;;;;;;;5057088;27;99190;-76
2023/03/15 10:07:37;;;;;;;1.83;0.80;;;;;;;;;;5081273;27;98274;-76
2023/03/15 10:10:07;;;;;;;1.15;0.55;;;;;;;;;;5058436;27;99578;-77
2023/03/15 10:12:40;;;;;;;2.05;0.70;;;;;;;;;;5072070;27;99897;-77
2023/03/15 10:15:19;;;;;;;2.55;0.80;;;;;;;;;;5043508;27;101312;-76
2023/03/15 10:17:48;;;;;;;3.28;0.80;;;;;;;;;;5073883;27;98777;-76
2023/03/15 10:20:17;;;;;;;1.77;0.70;;;;;;;;;;5072459;27;98576;-77
2023/03/15 10:23:06;;;;;;;2.70;0.90;;;;;;;;;;5055996;27;99071;-77
2023/03/15 10:25:34;;;;;;;2.63;0.80;;;;;;;;;;5051763;27;99252;-76
2023/03/15 10:28:02;;;;;;;1.95;0.70;;;;;;;;;;5074534;27;98290;-76
2023/03/15 10:30:30;;;;;;;1.85;0.70;;;;;;;;;;5076615;27;98507;-77
2023/03/15 10:33:09;;;;;;;2.92;0.80;;;;;;;;;;5050886;27;106110;-77
2023/03/15 10:35:36;;;;;;;3.22;0.80;;;;;;;;;;5042282;27;98514;-76
2023/03/15 10:38:14;;;;;;;2.30;0.70;;;;;;;;;;5055719;27;100437;-76
2023/03/15 10:40:45;;;;;;;2.30;0.70;;;;;;;;;;5055712;27;98294;-76
2023/03/15 10:43:22;;;;;;;3.35;0.70;;;;;;;;;;5056916;27;99145;-75
2023/03/15 10:46:03;;;;;;;2.22;0.80;;;;;;;;;;5074707;27;98749;-76
2023/03/15 10:48:31;;;;;;;3.20;0.90;;;;;;;;;;5068496;27;99191;-76
2023/03/15 10:51:27;;;;;;;3.72;0.82;;;;;;;;;;5072868;27;102835;-78
2023/03/15 10:53:57;;;;;;;1.90;0.80;;;;;;;;;;5046590;27;98804;-78
2023/03/15 10:56:25;;;;;;;3.35;0.80;;;;;;;;;;5074810;27;97821;-78
2023/03/15 10:58:52;;;;;;;3.47;0.85;;;;;;;;;;5068090;27;106105;-78
2023/03/15 11:01:37;;;;;;;2.83;0.77;;;;;;;;;;5056546;27;98866;-78
2023/03/15 11:04:17;;;;;;;2.80;0.90;;;;;;;;;;5054859;27;99326;-78
2023/03/15 11:07:06;;;;;;;2.42;0.80;;;;;;;;;;5060699;27;98617;-78
2023/03/15 11:09:40;;;;;;;3.42;0.90;;;;;;;;;;5072496;27;98512;-79
2023/03/15 11:12:08;;;;;;;4.25;1.00;;;;;;;;;;5075253;27;98434;-78
2023/03/15 11:14:39;;;;;;;3.05;0.93;;;;;;;;;;5051786;27;99410;-78
2023/03/15 11:17:07;;;;;;;3.03;0.88;;;;;;;;;;5079624;27;98692;-78
2023/03/15 11:19:37;;;;;;;3.63;0.90;;;;;;;;;;5073027;27;99856;-79
2023/03/15 11:22:04;;;;;;;3.70;0.80;;;;;;;;;;5056174;27;97694;-78
2023/03/15 11:24:31;;;;;;;3.50;0.90;;;;;;;;;;5073505;27;98408;-78
2023/03/15 11:27:00;;;;;;;8.52;1.50;;;;;;;;;;5050614;27;104084;-79
2023/03/15 11:29:31;;;;;;;6.78;1.08;;;;;;;;;;5036391;27;100426;-79
2023/03/15 11:31:59;;;;;;;6.95;1.00;;;;;;;;;;5081390;27;99135;-77
2023/03/15 11:34:25;;;;;;;8.68;1.00;;;;;;;;;;5055185;27;98855;-76
2023/03/15 11:36:54;;;;;;;5.00;0.93;;;;;;;;;;5070907;27;98649;-78
2023/03/15 11:39:38;;;;;;;8.20;1.05;;;;;;;;;;5053231;27;101121;-78
2023/03/15 11:42:07;;;;;;;5.63;1.00;;;;;;;;;;5079028;27;99275;-79
2023/03/15 11:44:42;;;;;;;6.35;1.10;;;;;;;;;;5049914;27;98769;-78
2023/03/15 11:47:22;;;;;;;4.45;1.08;;;;;;;;;;5073875;27;97810;-77
2023/03/15 11:49:50;;;;;;;4.32;1.08;;;;;;;;;;5064475;27;99565;-78
2023/03/15 11:52:18;;;;;;;3.45;0.80;;;;;;;;;;5075873;27;98520;-78
2023/03/15 11:54:45;;;;;;;5.38;1.00;;;;;;;;;;5071816;27;100262;-77
2023/03/15 11:57:35;;;;;;;3.28;1.00;;;;;;;;;;5056725;27;98211;-77
2023/03/15 12:00:16;;;;;;;4.50;1.10;;;;;;;;;;5071230;27;106447;-77
2023/03/15 12:02:50;;;;;;;3.22;0.90;;;;;;;;;;5053241;27;101095;-78
2023/03/15 12:05:35;;;;;;;3.80;0.90;;;;;;;;;;5071714;27;100671;-77
2023/03/15 12:08:01;;;;;;;;;;;;;;;;;;5056832;27;98759;-78
2023/03/15 12:10:30;;;;;;;2.85;1.00;;;;;;;;;;5055642;27;109921;-78
2023/03/15 12:12:58;;;;;;;4.57;1.00;;;;;;;;;;5074923;27;103241;-78
2023/03/15 12:15:27;;;;;;;2.75;0.90;;;;;;;;;;5059529;27;99313;-78
2023/03/15 12:17:55;;;;;;;3.80;1.00;;;;;;;;;;5074630;27;99068;-78
2023/03/15 12:20:41;;;;;;;2.10;0.80;;;;;;;;;;5073516;27;99841;-76
2023/03/15 12:23:17;;;;;;;4.70;1.25;;;;;;;;;;5077475;27;103132;-77
2023/03/15 12:25:57;;;;;;;3.55;0.77;;;;;;;;;;5053194;27;99205;-78
2023/03/15 12:28:27;;;;;;;3.40;0.98;;;;;;;;;;5081438;27;98573;-78
2023/03/15 12:30:55;;;;;;;2.53;0.90;;;;;;;;;;5059291;27;99475;-77
2023/03/15 12:33:23;;;;;;;4.20;1.05;;;;;;;;;;5078639;27;98580;-78
2023/03/15 12:35:49;;;;;;;3.22;1.00;;;;;;;;;;5077689;27;99450;-78
2023/03/15 12:38:17;;;;;;;3.42;0.90;;;;;;;;;;5071182;27;98177;-78
2023/03/15 12:40:49;;;;;;;4.45;1.08;;;;;;;;;;5072793;27;99593;-78
2023/03/15 12:43:33;;;;;;;3.53;1.00;;;;;;;;;;5076704;27;100366;-77
2023/03/15 12:46:00;;;;;;;4.05;1.05;;;;;;;;;;5078721;27;99051;-77
2023/03/15 12:48:27;;;;;;;2.90;0.80;;;;;;;;;;5044589;27;102196;-78
2023/03/15 12:50:55;;;;;;;2.80;0.80;;;;;;;;;;5075245;27;99086;-78
2023/03/15 12:53:26;;;;;;;4.35;0.90;;;;;;;;;;5054466;27;100052;-77
2023/03/15 12:55:53;;;;;;;4.18;1.00;;;;;;;;;;5079415;27;99161;-76
2023/03/15 12:58:37;;;;;;;4.78;1.13;;;;;;;;;;5077753;27;98761;-77
2023/03/15 13:01:05;;;;;;;6.00;0.80;;;;;;;;;;5052721;27;101491;-76
2023/03/15 13:03:35;;;;;;;8.68;1.30;;;;;;;;;;5061083;27;100596;-77
2023/03/15 13:06:05;;;;;;;5.65;0.90;;;;;;;;;;5080810;27;98925;-78
2023/03/15 13:08:46;;;;;;;5.30;1.00;;;;;;;;;;5073450;27;105752;-78
2023/03/15 13:11:18;;;;;;;4.60;0.90;;;;;;;;;;5081073;27;104263;-76
2023/03/15 13:14:01;;;;;;;4.78;0.88;;;;;;;;;;5075191;27;99244;-76
2023/03/15 13:16:37;;;;;;;3.55;0.80;;;;;;;;;;5073784;27;100930;-77
2023/03/15 13:19:05;;;;;;;4.85;1.00;;;;;;;;;;5073719;27;98344;-77
2023/03/15 13:21:35;;;;;;;2.95;0.77;;;;;;;;;;5073135;27;98719;-76
2023/03/15 13:24:04;;;;;;;3.33;0.70;;;;;;;;;;5067117;27;99345;-76
2023/03/15 13:26:56;;;;;;;1.98;0.80;;;;;;;;;;5069714;27;99067;-76
2023/03/15 13:29:31;;;;;;;7.65;1.25;;;;;;;;;;5024324;27;106757;-76
2023/03/15 13:32:17;;;;;;;2.60;0.85;;;;;;;;;;5051997;27;101175;-76
2023/03/15 13:34:45;;;;;;;5.22;1.42;;;;;;;;;;5075648;27;98664;-77
2023/03/15 13:37:16;;;;;;;8.38;1.92;;;;;;;;;;5070880;27;100048;-76
2023/03/15 13:39:58;;;;;;;5.50;1.58;;;;;;;;;;5069710;27;98374;-77
2023/03/15 13:42:25;;;;;;;5.72;1.70;;;;;;;;;;5054384;27;98943;-77
2023/03/15 13:45:14;;;;;;;6.22;1.60;;;;;;;;;;5075185;27;99696;-76
2023/03/15 13:47:41;;;;;;;8.63;1.75;;;;;;;;;;5073916;27;98708;-77
2023/03/15 13:50:12;;;;;;;5.95;1.85;;;;;;;;;;5076901;27;98864;-77
2023/03/15 13:52:39;;;;;;;7.75;1.92;;;;;;;;;;5056931;27;100417;-77
2023/03/15 13:55:06;;;;;;;6.85;1.70;;;;;;;;;;5073809;27;99069;-77
2023/03/15 13:57:33;;;;;;;5.68;1.63;;;;;;;;;;5058923;27;100461;-76
2023/03/15 14:00:00;;;;;;;7.85;1.70;;;;;;;;;;5056865;27;99147;-76
2023/03/15 14:02:31;;;;;;;4.68;1.48;;;;;;;;;;5057145;27;99909;-76
2023/03/15 14:05:01;;;;;;;4.82;1.65;;;;;;;;;;5070951;27;103833;-75
2023/03/15 14:07:35;;;;;;;6.25;1.80;;;;;;;;;;5058244;27;98565;-76
2023/03/15 14:10:17;;;;;;;4.57;1.60;;;;;;;;;;5057734;27;98609;-76
2023/03/15 14:12:44;;;;;;;4.70;1.70;;;;;;;;;;5076385;27;99399;-76
2023/03/15 14:15:38;;;;;;;5.40;1.52;;;;;;;;;;5069188;27;99052;-77
2023/03/15 14:18:07;;;;;;;4.85;1.63;;;;;;;;;;5048834;27;100573;-76
2023/03/15 14:20:41;;;;;;;4.75;1.55;;;;;;;;;;5055415;27;98331;-76
2023/03/15 14:23:10;;;;;;;4.43;1.50;;;;;;;;;;5070856;27;99185;-75
2023/03/15 14:25:36;;;;;;;5.43;1.40;;;;;;;;;;5054973;27;102012;-76
2023/03/15 14:28:04;;;;;;;3.83;1.30;;;;;;;;;;5046426;27;100518;-76
2023/03/15 14:30:33;;;;;;;4.05;1.50;;;;;;;;;;5066806;27;100860;-77
2023/03/15 14:33:01;;;;;;;5.18;1.70;;;;;;;;;;5048386;27;106164;-77
2023/03/15 14:35:38;;;;;;;3.70;1.40;;;;;;;;;;5072301;27;98653;-76
2023/03/15 14:38:06;;;;;;;4.30;1.63;;;;;;;;;;5055969;27;98505;-76
2023/03/15 14:40:34;;;;;;;4.38;1.20;;;;;;;;;;5054203;27;98814;-77
2023/03/15 14:43:02;;;;;;;3.90;1.40;;;;;;;;;;5061010;27;98387;-76
2023/03/15 14:45:29;;;;;;;3.35;1.30;;;;;;;;;;5069825;27;98147;-77
2023/03/15 14:47:56;;;;;;;;;;;;;;;;;;5068748;27;98322;-78
2023/03/15 14:50:24;;;;;;;4.18;1.38;;;;;;;;;;5074919;27;128890;-77
2023/03/15 14:52:53;;;;;;;4.05;1.40;;;;;;;;;;5072326;27;100480;-78
2023/03/15 14:55:26;;;;;;;4.25;1.45;;;;;;;;;;5056069;27;98456;-76
2023/03/15 14:57:52;;;;;;;5.05;1.70;;;;;;;;;;5075315;27;98736;-76
2023/03/15 15:00:19;;;;;;;5.70;1.40;;;;;;;;;;5073272;27;99867;-77
2023/03/15 15:02:47;;;;;;;5.22;1.45;;;;;;;;;;5078230;27;98336;-77
2023/03/15 15:05:22;;;;;;;3.97;1.30;;;;;;;;;;5075116;27;99320;-77
2023/03/15 15:07:53;;;;;;;3.80;1.42;;;;;;;;;;5057288;27;98588;-77